»·PEaware :: SWA1065 KLAX-KSFO

SWA1065 :: KLAX-KSFO

FLIGHT INFORMATION

Flight Status: Arrived
Operator:
Southwest Airlines
More flights by this operator :: More flights under this callsign
Pilot: Cody B. (17747)
Aircraft: BOEING 737-800
(B738)
More flights by this aircraft type
Origin: KLAX Los Angeles Intl
United States
Destination: KSFO San Francisco Intl
United States
More flights between these airports :: More routes between these airports
Route: SUMMR1 STOKD SERFR SERFR3
File this flight plan on PilotEdge
Remarks:
Altitude:
(Current/Filed)
34,000ft
Speed:
(Current/Filed)
458kts
Departed: 20-Jul-18 01:49 PM
Arrived: 20-Jul-18 02:41 PM
Distance/Time
Traveled:
293nm/0:52
Distance/Time
To Go:
Arrived

Flight Plot

Page will automatically refresh every two minutes.

Flight plan parsing failed; only flown route is shown


Map Options




Map Legend


Flown Route
Filed Route
Departure Airport
Arrival Airport
Navaid (VOR, NDB)
Fix

Horizontal Profiles

Position Reports

Time Latitude Longitude Heading Altitude Ground
Speed
20-Jul-18 13:13 33.946829 -118.400672 262 133ft 0kts
20-Jul-18 13:14 33.946829 -118.400672 262 133ft 0kts
20-Jul-18 13:15 33.946829 -118.400672 262 133ft 0kts
20-Jul-18 13:16 33.946829 -118.400672 262 133ft 0kts
20-Jul-18 13:17 33.946829 -118.400672 262 133ft 0kts
20-Jul-18 13:18 33.946829 -118.400672 262 133ft 0kts
20-Jul-18 13:19 33.946829 -118.400672 262 133ft 0kts
20-Jul-18 13:20 33.946829 -118.400672 262 133ft 0kts
20-Jul-18 13:21 33.946829 -118.400672 262 133ft 0kts
20-Jul-18 13:22 33.946829 -118.400672 262 133ft 0kts
20-Jul-18 13:23 33.946829 -118.400672 262 133ft 0kts
20-Jul-18 13:24 33.946829 -118.400672 262 133ft 0kts
20-Jul-18 13:25 33.946829 -118.400672 262 133ft 0kts
20-Jul-18 13:26 33.946829 -118.400672 262 133ft 0kts
20-Jul-18 13:27 33.946829 -118.400672 262 133ft 0kts
20-Jul-18 13:28 33.946829 -118.400672 262 133ft 0kts
20-Jul-18 13:29 33.946829 -118.400672 262 133ft 0kts
20-Jul-18 13:30 33.946829 -118.400672 262 133ft 0kts
20-Jul-18 13:31 33.946829 -118.400672 262 133ft 0kts
20-Jul-18 13:32 33.946829 -118.400672 262 133ft 0kts
20-Jul-18 13:33 33.946829 -118.400672 262 133ft 0kts
20-Jul-18 13:34 33.946829 -118.400672 262 133ft 0kts
20-Jul-18 13:35 33.946829 -118.400672 262 133ft 0kts
20-Jul-18 13:36 33.946829 -118.400672 262 133ft 0kts
20-Jul-18 13:37 33.946829 -118.400672 262 133ft 0kts
20-Jul-18 13:38 33.946829 -118.400672 262 133ft 0kts
20-Jul-18 13:39 33.946829 -118.400672 262 133ft 0kts
20-Jul-18 13:40 33.946829 -118.400672 262 133ft 0kts
20-Jul-18 13:41 33.946856 -118.400434 262 133ft 2kts
20-Jul-18 13:42 33.946647 -118.400070 358 133ft 0kts
20-Jul-18 13:43 33.946647 -118.400070 358 133ft 0kts
20-Jul-18 13:44 33.946647 -118.400070 358 133ft 0kts
20-Jul-18 13:45 33.947193 -118.400096 358 133ft 8kts
20-Jul-18 13:46 33.948040 -118.400032 356 133ft 0kts
20-Jul-18 13:47 33.948680 -118.400607 308 132ft 6kts
20-Jul-18 13:48 33.949252 -118.401468 316 133ft 0kts
20-Jul-18 13:49 33.949484 -118.401619 343 133ft 4kts
20-Jul-18 13:50 33.949841 -118.405178 263 133ft 61kts
20-Jul-18 13:51 33.944758 -118.453567 260 1701ft 176kts
20-Jul-18 13:52 33.940779 -118.516813 264 4113ft 205kts
20-Jul-18 13:53 33.936034 -118.598032 261 6020ft 267kts
20-Jul-18 13:54 33.928804 -118.688448 261 8438ft 295kts
20-Jul-18 13:55 33.922222 -118.772344 261 10571ft 312kts
20-Jul-18 13:56 33.917994 -118.882533 269 12705ft 344kts
20-Jul-18 13:57 33.925443 -119.018500 287 15530ft 362kts
20-Jul-18 13:58 33.976661 -119.124504 300 17786ft 374kts
20-Jul-18 13:59 34.044516 -119.219963 324 19815ft 388kts
20-Jul-18 14:00 34.118801 -119.282469 324 21396ft 397kts
20-Jul-18 14:01 34.209700 -119.359959 324 23127ft 408kts
20-Jul-18 14:02 34.303154 -119.440306 324 24683ft 419kts
20-Jul-18 14:03 34.399112 -119.523236 323 26110ft 430kts
20-Jul-18 14:04 34.485665 -119.623957 313 27417ft 439kts
20-Jul-18 14:05 34.569850 -119.727672 312 28623ft 448kts
20-Jul-18 14:06 34.657449 -119.835917 312 29913ft 452kts
20-Jul-18 14:07 34.745241 -119.944715 311 31252ft 452kts
20-Jul-18 14:08 34.832768 -120.053581 311 32479ft 451kts
20-Jul-18 14:09 34.920090 -120.162554 311 33580ft 450kts
20-Jul-18 14:10 35.007712 -120.272340 311 34034ft 465kts
20-Jul-18 14:11 35.100476 -120.388312 314 34029ft 490kts
20-Jul-18 14:12 35.197444 -120.497171 315 33998ft 492kts
20-Jul-18 14:13 35.298195 -120.610164 315 33997ft 489kts
20-Jul-18 14:14 35.395632 -120.719852 314 33998ft 490kts
20-Jul-18 14:15 35.496055 -120.832721 318 33986ft 490kts
20-Jul-18 14:16 35.604833 -120.933103 321 33992ft 491kts
20-Jul-18 14:17 35.713910 -121.033867 321 33993ft 491kts
20-Jul-18 14:18 35.822366 -121.134807 320 33994ft 488kts
20-Jul-18 14:19 35.930208 -121.235694 320 33994ft 488kts
20-Jul-18 14:20 36.038272 -121.337246 320 33443ft 487kts
20-Jul-18 14:21 36.144249 -121.426497 327 32528ft 489kts
20-Jul-18 14:22 36.250743 -121.508823 327 29493ft 464kts
20-Jul-18 14:23 36.357324 -121.591964 327 26755ft 458kts
20-Jul-18 14:24 36.457414 -121.670474 327 24194ft 423kts
20-Jul-18 14:25 36.556522 -121.748535 327 21642ft 416kts
20-Jul-18 14:26 36.651689 -121.823739 328 19254ft 403kts
20-Jul-18 14:27 36.746371 -121.895984 341 16910ft 392kts
20-Jul-18 14:28 36.842952 -121.924610 348 14773ft 353kts
20-Jul-18 14:29 36.930652 -121.948528 348 12960ft 316kts
20-Jul-18 14:30 37.010759 -121.976687 343 11615ft 296kts
20-Jul-18 14:31 37.086182 -122.006035 343 10730ft 292kts
20-Jul-18 14:32 37.155016 -122.032884 343 9929ft 291kts
20-Jul-18 14:33 37.230688 -122.062437 342 8691ft 288kts
20-Jul-18 14:34 37.305677 -122.091828 341 7403ft 285kts
20-Jul-18 14:35 37.377775 -122.120175 341 6016ft 273kts
20-Jul-18 14:36 37.449091 -122.144881 342 4056ft 248kts
20-Jul-18 14:37 37.506695 -122.164818 342 3966ft 187kts
20-Jul-18 14:38 37.545051 -122.198967 295 2956ft 174kts
20-Jul-18 14:39 37.566178 -122.250088 297 1990ft 162kts
20-Jul-18 14:40 37.586086 -122.297427 298 1120ft 150kts
20-Jul-18 14:41 37.605434 -122.343869 300 340ft 152kts
20-Jul-18 14:42 37.619820 -122.377717 298 21ft 12kts
20-Jul-18 14:43 37.619697 -122.379226 224 21ft 4kts
20-Jul-18 14:44 37.618139 -122.379653 158 21ft 9kts
20-Jul-18 14:45 37.616091 -122.379964 208 21ft 6kts
20-Jul-18 14:46 37.614497 -122.381031 206 21ft 8kts
20-Jul-18 14:47 37.611893 -122.382766 207 21ft 10kts
20-Jul-18 14:48 37.610912 -122.383405 208 21ft 7kts
20-Jul-18 14:49 37.611727 -122.384779 6 21ft 8kts
20-Jul-18 14:50 37.612633 -122.384671 5 21ft 0kts
20-Jul-18 14:51 37.612633 -122.384672 5 21ft 0kts
20-Jul-18 14:52 37.612633 -122.384672 5 21ft 0kts
20-Jul-18 14:53 37.612633 -122.384672 5 21ft 0kts
20-Jul-18 14:54 37.612633 -122.384672 5 21ft 0kts
20-Jul-18 14:55 37.612633 -122.384672 5 21ft 0kts
20-Jul-18 14:56 37.612633 -122.384672 5 21ft 0kts

Navigation Log

Ident Type
Flight plan parsing failed, navigation log unavailable